LVOJE SAAP-SAAR
Flight info
| Callsign | LVOJE |
|---|---|
| Flight time | 0h 25m |
| Altitude | 4000 |
| Route | DABOT |
| Aircraft | BE58/L-SDFGRY/C |
Departure
| Time | 2026-04-18 02:34 |
|---|---|
| Airport | General Urquiza Airport (SAAP) |
Arrival
| Time | 2026-04-18 02:59 |
|---|---|
| Airport | Rosario Islas Malvinas International Airport (SAAR) |
| Time | Latitude | Longitude | Altitude | Speed | Heading |
|---|---|---|---|---|---|
| 2026-04-18 02:21 | -31.78953 | -60.48288 | 247 ft | 0 kts | 278° |
| 2026-04-18 02:30 | -31.78946 | -60.48303 | 247 ft | 2 kts | 308° |
| 2026-04-18 02:30 | -31.78932 | -60.48260 | 247 ft | 8 kts | 69° |
| 2026-04-18 02:31 | -31.78918 | -60.48208 | 247 ft | 5 kts | 92° |
| 2026-04-18 02:31 | -31.78899 | -60.48163 | 247 ft | 7 kts | 36° |
| 2026-04-18 02:31 | -31.78845 | -60.48149 | 247 ft | 9 kts | 11° |
| 2026-04-18 02:31 | -31.78775 | -60.48137 | 247 ft | 11 kts | 8° |
| 2026-04-18 02:32 | -31.78684 | -60.48121 | 247 ft | 16 kts | 8° |
| 2026-04-18 02:32 | -31.78588 | -60.48107 | 247 ft | 7 kts | 7° |
| 2026-04-18 02:32 | -31.78541 | -60.48076 | 247 ft | 8 kts | 62° |
| 2026-04-18 02:32 | -31.78539 | -60.47978 | 247 ft | 15 kts | 100° |
| 2026-04-18 02:33 | -31.78563 | -60.47884 | 245 ft | 11 kts | 134° |
| 2026-04-18 02:33 | -31.78590 | -60.47881 | 245 ft | 0 kts | 190° |
| 2026-04-18 02:33 | -31.78592 | -60.47881 | 245 ft | 3 kts | 190° |
| 2026-04-18 02:33 | -31.78806 | -60.47922 | 245 ft | 78 kts | 188° |
| 2026-04-18 02:34 | -31.79566 | -60.48069 | 386 ft | 129 kts | 186° |
| 2026-04-18 02:34 | -31.80521 | -60.48205 | 789 ft | 145 kts | 185° |
| 2026-04-18 02:34 | -31.81569 | -60.48323 | 1117 ft | 161 kts | 185° |
| 2026-04-18 02:34 | -31.82765 | -60.48547 | 1217 ft | 179 kts | 188° |
| 2026-04-18 02:35 | -31.83990 | -60.48787 | 1479 ft | 172 kts | 188° |
| 2026-04-18 02:35 | -31.85098 | -60.48995 | 1721 ft | 159 kts | 188° |
| 2026-04-18 02:35 | -31.86165 | -60.49193 | 1953 ft | 152 kts | 188° |
| 2026-04-18 02:35 | -31.87190 | -60.49388 | 2186 ft | 147 kts | 188° |
| 2026-04-18 02:36 | -31.88188 | -60.49581 | 2419 ft | 144 kts | 188° |
| 2026-04-18 02:36 | -31.89166 | -60.49782 | 2654 ft | 141 kts | 191° |
| 2026-04-18 02:36 | -31.90115 | -60.50070 | 2886 ft | 140 kts | 192° |
| 2026-04-18 02:36 | -31.91049 | -60.50350 | 3126 ft | 138 kts | 191° |
| 2026-04-18 02:37 | -31.91976 | -60.50620 | 3361 ft | 137 kts | 191° |
| 2026-04-18 02:37 | -31.92897 | -60.50886 | 3595 ft | 135 kts | 191° |
| 2026-04-18 02:37 | -31.93811 | -60.51148 | 3833 ft | 135 kts | 190° |
| 2026-04-18 02:37 | -31.94732 | -60.51412 | 3990 ft | 141 kts | 191° |
| 2026-04-18 02:38 | -31.95716 | -60.51693 | 4004 ft | 154 kts | 191° |
| 2026-04-18 02:38 | -31.96820 | -60.52011 | 4002 ft | 169 kts | 191° |
| 2026-04-18 02:38 | -31.97992 | -60.52349 | 4000 ft | 177 kts | 191° |
| 2026-04-18 02:38 | -31.99206 | -60.52699 | 3997 ft | 181 kts | 191° |
| 2026-04-18 02:39 | -32.00440 | -60.53054 | 3996 ft | 183 kts | 191° |
| 2026-04-18 02:39 | -32.01683 | -60.53412 | 3996 ft | 184 kts | 191° |
| 2026-04-18 02:39 | -32.02944 | -60.53758 | 3993 ft | 185 kts | 190° |
| 2026-04-18 02:39 | -32.04199 | -60.54091 | 3993 ft | 185 kts | 190° |
| 2026-04-18 02:40 | -32.05457 | -60.54424 | 3989 ft | 185 kts | 190° |
| 2026-04-18 02:40 | -32.06712 | -60.54758 | 3994 ft | 185 kts | 190° |
| 2026-04-18 02:40 | -32.07968 | -60.55094 | 3991 ft | 185 kts | 190° |
| 2026-04-18 02:40 | -32.09226 | -60.55430 | 3992 ft | 186 kts | 191° |
| 2026-04-18 02:41 | -32.10488 | -60.55762 | 3989 ft | 186 kts | 190° |
| 2026-04-18 02:41 | -32.11749 | -60.56093 | 3989 ft | 186 kts | 190° |
| 2026-04-18 02:41 | -32.13009 | -60.56423 | 3988 ft | 186 kts | 190° |
| 2026-04-18 02:41 | -32.14267 | -60.56753 | 3986 ft | 185 kts | 190° |
| 2026-04-18 02:42 | -32.15528 | -60.57084 | 3990 ft | 185 kts | 190° |
| 2026-04-18 02:42 | -32.16787 | -60.57416 | 3986 ft | 185 kts | 190° |
| 2026-04-18 02:42 | -32.18047 | -60.57749 | 3988 ft | 185 kts | 191° |
| 2026-04-18 02:42 | -32.19305 | -60.58082 | 3988 ft | 185 kts | 191° |
| 2026-04-18 02:43 | -32.20565 | -60.58416 | 3984 ft | 185 kts | 190° |
| 2026-04-18 02:43 | -32.21810 | -60.58746 | 3986 ft | 186 kts | 191° |
| 2026-04-18 02:43 | -32.23070 | -60.59080 | 3985 ft | 186 kts | 190° |
| 2026-04-18 02:43 | -32.24331 | -60.59415 | 3984 ft | 186 kts | 191° |
| 2026-04-18 02:44 | -32.25592 | -60.59752 | 3983 ft | 186 kts | 191° |
| 2026-04-18 02:44 | -32.26848 | -60.60144 | 3973 ft | 187 kts | 195° |
| 2026-04-18 02:44 | -32.28072 | -60.60673 | 3972 ft | 187 kts | 202° |
| 2026-04-18 02:44 | -32.29215 | -60.61409 | 3958 ft | 189 kts | 212° |
| 2026-04-18 02:45 | -32.30247 | -60.62380 | 3953 ft | 189 kts | 216° |
| 2026-04-18 02:45 | -32.31397 | -60.63080 | 3985 ft | 185 kts | 194° |
| 2026-04-18 02:45 | -32.32649 | -60.63438 | 3988 ft | 185 kts | 191° |
| 2026-04-18 02:45 | -32.33910 | -60.63778 | 3984 ft | 186 kts | 191° |
| 2026-04-18 02:46 | -32.35170 | -60.64115 | 3986 ft | 186 kts | 191° |
| 2026-04-18 02:46 | -32.36425 | -60.64445 | 3986 ft | 186 kts | 191° |
| 2026-04-18 02:46 | -32.37689 | -60.64777 | 3988 ft | 186 kts | 191° |
| 2026-04-18 02:46 | -32.38953 | -60.65109 | 3986 ft | 186 kts | 191° |
| 2026-04-18 02:47 | -32.40217 | -60.65440 | 3986 ft | 186 kts | 191° |
| 2026-04-18 02:47 | -32.41479 | -60.65770 | 3988 ft | 186 kts | 191° |
| 2026-04-18 02:47 | -32.42744 | -60.66101 | 3986 ft | 186 kts | 191° |
| 2026-04-18 02:47 | -32.44009 | -60.66433 | 3988 ft | 186 kts | 191° |
| 2026-04-18 02:48 | -32.45275 | -60.66765 | 3987 ft | 186 kts | 191° |
| 2026-04-18 02:48 | -32.46537 | -60.67097 | 3988 ft | 186 kts | 191° |
| 2026-04-18 02:48 | -32.47802 | -60.67430 | 3987 ft | 186 kts | 191° |
| 2026-04-18 02:48 | -32.49065 | -60.67762 | 3988 ft | 186 kts | 191° |
| 2026-04-18 02:49 | -32.50330 | -60.68095 | 3984 ft | 186 kts | 191° |
| 2026-04-18 02:49 | -32.51592 | -60.68428 | 3986 ft | 186 kts | 191° |
| 2026-04-18 02:49 | -32.52841 | -60.68758 | 3985 ft | 186 kts | 191° |
| 2026-04-18 02:49 | -32.54105 | -60.69092 | 3984 ft | 186 kts | 191° |
| 2026-04-18 02:50 | -32.55369 | -60.69426 | 3986 ft | 186 kts | 191° |
| 2026-04-18 02:50 | -32.56635 | -60.69762 | 3984 ft | 186 kts | 191° |
| 2026-04-18 02:50 | -32.57902 | -60.70100 | 3986 ft | 186 kts | 191° |
| 2026-04-18 02:50 | -32.59170 | -60.70438 | 3985 ft | 186 kts | 191° |
| 2026-04-18 02:51 | -32.60439 | -60.70776 | 3929 ft | 189 kts | 191° |
| 2026-04-18 02:51 | -32.61742 | -60.71115 | 3790 ft | 194 kts | 191° |
| 2026-04-18 02:51 | -32.63084 | -60.71454 | 3646 ft | 197 kts | 191° |
| 2026-04-18 02:51 | -32.64417 | -60.71791 | 3503 ft | 198 kts | 191° |
| 2026-04-18 02:52 | -32.65709 | -60.72118 | 3355 ft | 178 kts | 191° |
| 2026-04-18 02:52 | -32.66852 | -60.72411 | 3195 ft | 163 kts | 191° |
| 2026-04-18 02:52 | -32.67933 | -60.72689 | 3034 ft | 155 kts | 191° |
| 2026-04-18 02:52 | -32.68973 | -60.72959 | 2867 ft | 151 kts | 191° |
| 2026-04-18 02:53 | -32.69986 | -60.73221 | 2709 ft | 147 kts | 191° |
| 2026-04-18 02:53 | -32.70981 | -60.73476 | 2555 ft | 145 kts | 191° |
| 2026-04-18 02:53 | -32.71963 | -60.73728 | 2404 ft | 143 kts | 191° |
| 2026-04-18 02:53 | -32.72934 | -60.73980 | 2260 ft | 142 kts | 193° |
| 2026-04-18 02:54 | -32.73857 | -60.74323 | 2196 ft | 135 kts | 198° |
| 2026-04-18 02:54 | -32.74737 | -60.74676 | 2118 ft | 132 kts | 198° |
| 2026-04-18 02:54 | -32.75617 | -60.74996 | 2013 ft | 132 kts | 194° |
| 2026-04-18 02:54 | -32.76510 | -60.75271 | 1893 ft | 134 kts | 194° |
| 2026-04-18 02:55 | -32.77410 | -60.75522 | 1808 ft | 132 kts | 191° |
| 2026-04-18 02:55 | -32.78308 | -60.75728 | 1733 ft | 131 kts | 190° |
| 2026-04-18 02:55 | -32.79194 | -60.75937 | 1666 ft | 128 kts | 191° |
| 2026-04-18 02:55 | -32.80021 | -60.76147 | 1605 ft | 120 kts | 191° |
| 2026-04-18 02:56 | -32.80846 | -60.76340 | 1490 ft | 121 kts | 190° |
| 2026-04-18 02:56 | -32.81664 | -60.76520 | 1429 ft | 119 kts | 189° |
| 2026-04-18 02:56 | -32.83266 | -60.76832 | 1160 ft | 113 kts | 191° |
| 2026-04-18 02:57 | -32.84006 | -60.77030 | 1045 ft | 105 kts | 191° |
| 2026-04-18 02:57 | -32.84725 | -60.77195 | 840 ft | 104 kts | 189° |
| 2026-04-18 02:57 | -32.85421 | -60.77329 | 675 ft | 102 kts | 188° |
| 2026-04-18 02:57 | -32.86132 | -60.77505 | 595 ft | 112 kts | 194° |
| 2026-04-18 02:58 | -32.86890 | -60.77693 | 484 ft | 106 kts | 189° |
| 2026-04-18 02:58 | -32.87572 | -60.77827 | 350 ft | 91 kts | 191° |
| 2026-04-18 02:58 | -32.88165 | -60.77967 | 254 ft | 87 kts | 193° |
| 2026-04-18 02:58 | -32.88731 | -60.78102 | 157 ft | 79 kts | 192° |
| 2026-04-18 02:59 | -32.89228 | -60.78234 | 134 ft | 74 kts | 197° |
| 2026-04-18 02:59 | -32.89769 | -60.78345 | 96 ft | 68 kts | 188° |
| 2026-04-18 02:59 | -32.90157 | -60.78424 | 90 ft | 48 kts | 191° |
| 2026-04-18 02:59 | -32.90451 | -60.78491 | 89 ft | 38 kts | 191° |
| 2026-04-18 03:00 | -32.90681 | -60.78544 | 93 ft | 30 kts | 191° |
| 2026-04-18 03:00 | -32.90832 | -60.78575 | 94 ft | 15 kts | 180° |
| 2026-04-18 03:00 | -32.90921 | -60.78556 | 93 ft | 11 kts | 162° |
| 2026-04-18 03:00 | -32.90988 | -60.78529 | 92 ft | 9 kts | 157° |
| 2026-04-18 03:01 | -32.91044 | -60.78501 | 91 ft | 8 kts | 156° |
| 2026-04-18 03:01 | -32.91091 | -60.78464 | 92 ft | 11 kts | 144° |
| 2026-04-18 03:01 | -32.91183 | -60.78390 | 91 ft | 19 kts | 140° |
| 2026-04-18 03:01 | -32.91258 | -60.78316 | 90 ft | 13 kts | 137° |
| 2026-04-18 03:02 | -32.91339 | -60.78237 | 93 ft | 16 kts | 142° |
| 2026-04-18 03:02 | -32.91421 | -60.78163 | 90 ft | 13 kts | 158° |
| 2026-04-18 03:02 | -32.91509 | -60.78195 | 90 ft | 15 kts | 199° |
| 2026-04-18 03:02 | -32.91572 | -60.78221 | 90 ft | 5 kts | 200° |
| 2026-04-18 03:03 | -32.91618 | -60.78241 | 90 ft | 8 kts | 203° |
| 2026-04-18 03:03 | -32.91662 | -60.78263 | 90 ft | 7 kts | 201° |
| 2026-04-18 03:03 | -32.91716 | -60.78289 | 91 ft | 9 kts | 199° |
| 2026-04-18 03:03 | -32.91759 | -60.78247 | 90 ft | 10 kts | 165° |
| 2026-04-18 03:04 | -32.91816 | -60.78259 | 91 ft | 2 kts | 204° |
| 2026-04-18 03:04 | -32.91834 | -60.78248 | 91 ft | 6 kts | 96° |
| 2026-04-18 03:04 | -32.91826 | -60.78229 | 90 ft | 1 kts | 8° |
| 2026-04-18 03:04 | -32.91810 | -60.78224 | 90 ft | 0 kts | 19° |